createdAt,value
2018-02-24T00:00:34.259Z,64.07
2018-02-24T00:01:34.280Z,64.07
2018-02-24T00:02:34.291Z,64.26
2018-02-24T00:03:34.323Z,64.17
2018-02-24T00:04:34.329Z,63.89
2018-02-24T00:05:34.347Z,63.70
2018-02-24T00:06:34.371Z,63.79
2018-02-24T00:07:34.388Z,64.26
2018-02-24T00:08:34.400Z,64.26
2018-02-24T00:09:34.427Z,64.26
2018-02-24T00:10:34.427Z,64.26
2018-02-24T00:11:34.482Z,65.02
2018-02-24T00:12:34.473Z,64.83
2018-02-24T00:13:34.490Z,64.73
2018-02-24T00:14:34.508Z,64.54
2018-02-24T00:15:34.521Z,64.45
2018-02-24T00:16:34.529Z,64.92
2018-02-24T00:17:34.557Z,64.45
2018-02-24T00:18:34.571Z,65.21
2018-02-24T00:19:34.721Z,65.21
2018-02-24T00:20:34.605Z,65.21
2018-02-24T00:21:34.625Z,65.11
2018-02-24T00:22:34.639Z,65.11
2018-02-24T00:23:34.658Z,65.40
2018-02-24T00:24:34.671Z,65.40
2018-02-24T00:25:34.687Z,65.59
2018-02-24T00:26:34.714Z,65.87
2018-02-24T00:27:34.725Z,65.21
2018-02-24T00:28:34.758Z,66.06
2018-02-24T00:29:34.764Z,66.16
2018-02-24T00:30:34.786Z,65.97
2018-02-24T00:31:34.796Z,65.59
2018-02-24T00:32:34.819Z,65.68
2018-02-24T00:33:34.829Z,65.78
2018-02-24T00:34:34.846Z,65.78
2018-02-24T00:35:34.861Z,65.68
2018-02-24T00:36:34.885Z,65.78
2018-02-24T00:37:34.909Z,65.78
2018-02-24T00:38:34.910Z,65.59
2018-02-24T00:39:34.940Z,65.97
2018-02-24T00:40:34.943Z,66.25
2018-02-24T00:41:34.962Z,66.25
2018-02-24T00:42:34.989Z,65.97
2018-02-24T00:43:35.000Z,66.25
2018-02-24T00:44:35.053Z,66.35
2018-02-24T00:45:35.051Z,66.06
2018-02-24T00:46:35.070Z,66.16
2018-02-24T00:47:35.070Z,65.97
2018-02-24T00:48:35.083Z,65.97
2018-02-24T00:49:35.103Z,66.44
2018-02-24T00:50:35.134Z,66.72
2018-02-24T00:51:35.137Z,66.53
2018-02-24T00:52:35.160Z,66.63
2018-02-24T00:53:35.181Z,66.82
2018-02-24T00:54:35.190Z,65.78
2018-02-24T00:55:35.221Z,65.97
2018-02-24T00:56:35.236Z,66.12
2018-02-24T00:57:35.253Z,66.72
2018-02-24T00:58:35.257Z,66.72
2018-02-24T00:59:35.277Z,66.82
2018-02-24T01:00:35.293Z,66.82
2018-02-24T01:01:35.304Z,66.35
2018-02-24T01:02:35.346Z,66.06
2018-02-24T01:03:35.350Z,65.68
2018-02-24T01:04:35.370Z,65.97
2018-02-24T01:05:35.425Z,65.93
2018-02-24T01:06:35.421Z,66.41
2018-02-24T01:07:35.423Z,66.35
2018-02-24T01:08:35.575Z,66.72
2018-02-24T01:09:35.460Z,66.59
2018-02-24T01:10:35.474Z,66.63
2018-02-24T01:11:35.481Z,66.41
2018-02-24T01:12:35.502Z,67.00
2018-02-24T01:13:35.539Z,67.25
2018-02-24T01:14:35.592Z,67.25
2018-02-24T01:15:35.560Z,67.82
2018-02-24T01:16:35.566Z,67.54
2018-02-24T01:17:35.588Z,68.29
2018-02-24T01:18:35.611Z,69.43
2018-02-24T01:19:35.633Z,70.28
2018-02-24T01:20:35.640Z,70.47
2018-02-24T01:21:36.317Z,70.47
2018-02-24T01:22:35.669Z,69.62
2018-02-24T01:23:35.749Z,69.33
2018-02-24T01:24:35.712Z,68.95
2018-02-24T01:25:35.724Z,68.48
2018-02-24T01:26:35.758Z,68.48
2018-02-24T01:27:35.764Z,68.67
2018-02-24T01:28:35.789Z,68.10
2018-02-24T01:29:35.788Z,67.72
2018-02-24T01:30:35.823Z,68.33
2018-02-24T01:31:35.824Z,67.57
2018-02-24T01:32:35.842Z,67.47
2018-02-24T01:33:35.861Z,67.54
2018-02-24T01:34:35.887Z,67.19
2018-02-24T01:35:35.910Z,67.38
2018-02-24T01:36:35.906Z,67.29
2018-02-24T01:37:35.943Z,67.10
2018-02-24T01:38:35.944Z,67.19
2018-02-24T01:39:35.957Z,67.10
2018-02-24T01:40:35.980Z,67.29
2018-02-24T01:41:35.996Z,67.29
2018-02-24T01:42:36.008Z,67.10
2018-02-24T01:43:36.037Z,66.63
2018-02-24T01:44:36.054Z,66.35
2018-02-24T01:45:36.100Z,66.63
2018-02-24T01:46:36.080Z,66.44
2018-02-24T01:47:36.094Z,66.44
2018-02-24T01:48:36.115Z,66.82
2018-02-24T01:49:36.134Z,66.82
2018-02-24T01:50:36.157Z,67.00
2018-02-24T01:51:36.179Z,66.72
2018-02-24T01:52:36.179Z,66.72
2018-02-24T01:53:36.209Z,66.91
2018-02-24T01:54:36.220Z,66.91
2018-02-24T01:55:36.241Z,66.91
2018-02-24T01:56:36.251Z,66.63
2018-02-24T01:57:36.281Z,66.53
2018-02-24T01:58:36.297Z,66.82
2018-02-24T01:59:36.307Z,66.35
2018-02-24T02:00:36.344Z,66.63
2018-02-24T02:01:36.342Z,66.35
2018-02-24T02:02:36.360Z,66.44
2018-02-24T02:03:36.376Z,66.44
2018-02-24T02:04:36.386Z,66.72
2018-02-24T02:05:36.428Z,66.91
2018-02-24T02:06:36.431Z,66.53
2018-02-24T02:07:36.447Z,66.63
2018-02-24T02:08:36.474Z,67.19
2018-02-24T02:09:36.484Z,67.38
2018-02-24T02:10:36.492Z,67.29
2018-02-24T02:11:36.516Z,66.82
2018-02-24T02:12:36.581Z,66.35
2018-02-24T02:13:36.555Z,66.72
2018-02-24T02:14:36.560Z,66.53
2018-02-24T02:15:36.594Z,66.82
2018-02-24T02:16:36.626Z,66.53
2018-02-24T02:17:36.616Z,66.91
2018-02-24T02:18:36.636Z,66.91
2018-02-24T02:19:36.652Z,66.63
2018-02-24T02:20:36.667Z,66.72
2018-02-24T02:21:36.696Z,66.91
2018-02-24T02:22:36.702Z,66.72
2018-02-24T02:23:36.725Z,66.63
2018-02-24T02:24:36.736Z,66.16
2018-02-24T02:25:36.772Z,66.72
2018-02-24T02:26:36.786Z,66.53
2018-02-24T02:27:36.792Z,66.35
2018-02-24T02:28:36.814Z,66.44
2018-02-24T02:29:36.849Z,65.97
2018-02-24T02:30:36.846Z,66.35
2018-02-24T02:31:36.888Z,66.25
2018-02-24T02:32:36.876Z,65.78
2018-02-24T02:33:36.892Z,65.87
2018-02-24T02:34:36.950Z,66.06
2018-02-24T02:35:36.943Z,65.97
2018-02-24T02:36:36.952Z,66.44
2018-02-24T02:37:36.965Z,67.29
2018-02-24T02:38:36.996Z,67.85
2018-02-24T02:39:37.067Z,67.76
2018-02-24T02:40:37.038Z,67.76
2018-02-24T02:41:37.046Z,67.85
2018-02-24T02:42:37.091Z,67.57
2018-02-24T02:43:37.200Z,67.57
2018-02-24T02:44:37.091Z,67.47
2018-02-24T02:45:37.116Z,67.47
2018-02-24T02:46:37.130Z,67.29
2018-02-24T02:47:37.138Z,67.57
2018-02-24T02:48:37.164Z,67.76
2018-02-24T02:49:37.173Z,67.66
2018-02-24T02:50:37.205Z,67.47
2018-02-24T02:51:37.214Z,67.38
2018-02-24T02:52:37.224Z,67.19
2018-02-24T02:53:37.245Z,67.29
2018-02-24T02:54:37.276Z,66.82
2018-02-24T02:55:37.296Z,67.00
2018-02-24T02:56:37.307Z,66.82
2018-02-24T02:57:37.320Z,66.72
2018-02-24T02:58:37.375Z,66.53
2018-02-24T02:59:37.358Z,66.72
2018-02-24T03:00:37.390Z,66.91
2018-02-24T03:01:37.386Z,66.44
2018-02-24T03:02:37.402Z,66.63
2018-02-24T03:03:37.423Z,66.63
2018-02-24T03:04:37.466Z,66.82
2018-02-24T03:05:37.467Z,65.78
2018-02-24T03:06:37.471Z,65.97
2018-02-24T03:07:37.486Z,66.06
2018-02-24T03:08:37.511Z,66.06
2018-02-24T03:09:37.529Z,66.35
2018-02-24T03:10:37.556Z,66.06
2018-02-24T03:11:37.560Z,66.06
2018-02-24T03:12:37.572Z,65.97
2018-02-24T03:13:37.594Z,65.97
2018-02-24T03:14:37.617Z,66.06
2018-02-24T03:15:37.668Z,66.16
2018-02-24T03:16:37.771Z,66.82
2018-02-24T03:17:37.696Z,65.78
2018-02-24T03:18:37.691Z,66.25
2018-02-24T03:19:37.704Z,65.97
2018-02-24T03:20:37.732Z,66.35
2018-02-24T03:21:37.745Z,66.35
2018-02-24T03:22:37.751Z,66.25
2018-02-24T03:23:37.785Z,66.35
2018-02-24T03:24:37.795Z,66.63
2018-02-24T03:25:37.805Z,66.63
2018-02-24T03:26:37.820Z,67.00
2018-02-24T03:27:37.856Z,67.38
2018-02-24T03:28:37.857Z,67.76
2018-02-24T03:29:37.866Z,67.38
2018-02-24T03:30:37.893Z,67.76
2018-02-24T03:31:37.909Z,68.33
2018-02-24T03:32:37.922Z,68.71
2018-02-24T03:33:37.957Z,68.61
2018-02-24T03:34:37.963Z,68.42
2018-02-24T03:35:37.983Z,68.99
2018-02-24T03:36:37.991Z,69.09
2018-02-24T03:37:38.021Z,69.09
2018-02-24T03:38:38.036Z,68.99
2018-02-24T03:39:38.044Z,68.90
2018-02-24T03:40:38.113Z,68.90
2018-02-24T03:41:38.083Z,68.99
2018-02-24T03:42:38.103Z,69.37
2018-02-24T03:43:38.128Z,69.56
2018-02-24T03:44:38.138Z,69.27
2018-02-24T03:45:38.150Z,69.18
2018-02-24T03:46:38.168Z,69.18
2018-02-24T03:47:38.197Z,69.18
2018-02-24T03:48:38.205Z,69.18
2018-02-24T03:49:38.216Z,69.09
2018-02-24T03:50:38.245Z,69.37
2018-02-24T03:51:38.258Z,69.56
2018-02-24T03:52:38.276Z,69.37
2018-02-24T03:53:38.298Z,69.46
2018-02-24T03:54:38.311Z,69.84
2018-02-24T03:55:38.322Z,69.93
2018-02-24T03:56:38.356Z,70.21
2018-02-24T03:57:38.364Z,70.50
2018-02-24T03:58:38.376Z,69.93
2018-02-24T03:59:38.401Z,70.59
2018-02-24T04:00:38.419Z,70.59
2018-02-24T04:01:38.438Z,70.78
2018-02-24T04:02:38.451Z,70.21
2018-02-24T04:03:38.482Z,70.63
2018-02-24T04:04:38.488Z,70.82
2018-02-24T04:05:38.504Z,70.78
2018-02-24T04:06:38.517Z,70.69
2018-02-24T04:07:38.545Z,70.63
2018-02-24T04:08:38.555Z,70.63
2018-02-24T04:09:38.582Z,70.63
2018-02-24T04:10:38.597Z,70.63
2018-02-24T04:11:38.639Z,71.48
2018-02-24T04:12:38.620Z,71.48
2018-02-24T04:13:38.660Z,70.82
2018-02-24T04:14:38.656Z,71.58
2018-02-24T04:15:38.673Z,71.95
2018-02-24T04:16:38.705Z,71.95
2018-02-24T04:17:38.717Z,71.73
2018-02-24T04:18:38.729Z,71.77
2018-02-24T04:19:38.751Z,71.67
2018-02-24T04:20:38.762Z,72.05
2018-02-24T04:21:38.790Z,72.67
2018-02-24T04:22:38.805Z,72.86
2018-02-24T04:23:38.836Z,73.05
2018-02-24T04:24:38.836Z,73.33
2018-02-24T04:25:38.849Z,73.05
2018-02-24T04:26:38.883Z,72.86
2018-02-24T04:27:38.914Z,72.86
2018-02-24T04:28:38.923Z,72.99
2018-02-24T04:29:38.921Z,72.71
2018-02-24T04:30:38.944Z,72.71
2018-02-24T04:31:38.955Z,72.80
2018-02-24T04:32:38.974Z,72.80
2018-02-24T04:33:38.999Z,72.90
2018-02-24T04:34:39.024Z,72.90
2018-02-24T04:35:39.040Z,72.71
2018-02-24T04:36:39.063Z,73.18
2018-02-24T04:37:39.077Z,72.90
2018-02-24T04:38:39.087Z,73.18
2018-02-24T04:39:39.096Z,73.18
2018-02-24T04:40:39.122Z,73.18
2018-02-24T04:41:39.135Z,72.99
2018-02-24T04:42:39.161Z,73.18
2018-02-24T04:43:39.173Z,73.28
2018-02-24T04:44:39.214Z,73.71
2018-02-24T04:45:39.226Z,73.52
2018-02-24T04:46:39.233Z,73.66
2018-02-24T04:47:39.246Z,73.75
2018-02-24T04:48:39.255Z,73.85
2018-02-24T04:49:39.282Z,74.22
2018-02-24T04:50:39.296Z,74.22
2018-02-24T04:51:39.311Z,74.28
2018-02-24T04:52:39.336Z,74.04
2018-02-24T04:53:39.349Z,74.32
2018-02-24T04:54:39.358Z,74.88
2018-02-24T04:55:39.393Z,74.88
2018-02-24T04:56:39.409Z,75.26
2018-02-24T04:57:39.515Z,75.07
2018-02-24T04:58:39.426Z,75.26
2018-02-24T04:59:39.483Z,74.98
2018-02-24T05:00:39.464Z,75.45
2018-02-24T05:01:39.486Z,75.74
2018-02-24T05:02:39.509Z,76.02
2018-02-24T05:03:39.516Z,75.64
2018-02-24T05:04:39.535Z,75.74
2018-02-24T05:05:39.548Z,75.55
2018-02-24T05:06:39.566Z,75.55
2018-02-24T05:07:39.621Z,75.64
2018-02-24T05:08:39.611Z,75.74
2018-02-24T05:09:39.618Z,75.64
2018-02-24T05:10:39.785Z,75.93
2018-02-24T05:11:39.681Z,75.93
2018-02-24T05:12:39.713Z,76.02
2018-02-24T05:13:39.691Z,76.40
2018-02-24T05:14:39.713Z,76.50
2018-02-24T05:15:39.731Z,76.50
2018-02-24T05:16:39.759Z,76.68
2018-02-24T05:17:39.776Z,76.21
2018-02-24T05:18:39.781Z,76.87
2018-02-24T05:19:39.833Z,77.34
2018-02-24T05:20:39.814Z,77.34
2018-02-24T05:21:39.841Z,77.44
2018-02-24T05:22:39.884Z,77.25
2018-02-24T05:23:39.872Z,77.44
2018-02-24T05:24:39.881Z,77.15
2018-02-24T05:25:39.907Z,77.06
2018-02-24T05:26:39.924Z,77.15
2018-02-24T05:27:39.960Z,77.53
2018-02-24T05:28:39.956Z,77.44
2018-02-24T05:29:39.980Z,77.53
2018-02-24T05:30:40.011Z,77.53
2018-02-24T05:31:40.059Z,77.72
2018-02-24T05:32:40.029Z,78.01
2018-02-24T05:33:40.044Z,78.01
2018-02-24T05:34:40.077Z,77.72
2018-02-24T05:35:40.083Z,77.82
2018-02-24T05:36:40.102Z,77.91
2018-02-24T05:37:40.121Z,77.91
2018-02-24T05:38:40.140Z,77.72
2018-02-24T05:39:40.156Z,77.91
2018-02-24T05:40:40.185Z,77.72
2018-02-24T05:41:40.194Z,77.91
2018-02-24T05:42:40.207Z,78.01
2018-02-24T05:43:40.217Z,78.29
2018-02-24T05:44:40.248Z,78.39
2018-02-24T05:45:40.286Z,79.05
2018-02-24T05:46:40.294Z,78.76
2018-02-24T05:47:40.300Z,78.67
2018-02-24T05:48:40.311Z,79.05
2018-02-24T05:49:40.328Z,79.05
2018-02-24T05:50:40.356Z,78.86
2018-02-24T05:51:40.373Z,78.95
2018-02-24T05:52:40.375Z,78.86
2018-02-24T05:53:40.419Z,79.14
2018-02-24T05:54:40.423Z,79.05
2018-02-24T05:55:40.432Z,79.14
2018-02-24T05:56:40.475Z,79.80
2018-02-24T05:57:40.482Z,79.43
2018-02-24T05:58:40.500Z,79.90
2018-02-24T05:59:40.507Z,79.61
2018-02-24T06:00:40.535Z,80.18
2018-02-24T06:01:40.551Z,79.33
2018-02-24T06:02:40.580Z,78.95
2018-02-24T06:03:40.600Z,78.86
2018-02-24T06:04:40.597Z,79.14
2018-02-24T06:05:40.632Z,78.95
2018-02-24T06:06:40.637Z,79.33
2018-02-24T06:07:40.648Z,79.33
2018-02-24T06:08:40.668Z,79.05
2018-02-24T06:09:40.699Z,78.95
2018-02-24T06:10:40.716Z,78.48
2018-02-24T06:11:40.722Z,78.76
2018-02-24T06:12:40.743Z,78.67
2018-02-24T06:13:40.793Z,78.58
2018-02-24T06:14:40.775Z,78.01
2018-02-24T06:15:40.803Z,78.01
2018-02-24T06:16:40.814Z,77.63
2018-02-24T06:17:40.864Z,77.34
2018-02-24T06:18:40.867Z,77.25
2018-02-24T06:19:40.875Z,77.44
2018-02-24T06:20:40.882Z,77.25
2018-02-24T06:21:40.897Z,77.44
2018-02-24T06:22:40.913Z,76.87
2018-02-24T06:23:40.955Z,77.15
2018-02-24T06:24:40.979Z,76.59
2018-02-24T06:25:40.966Z,76.59
2018-02-24T06:26:40.974Z,76.87
2018-02-24T06:27:41.003Z,76.87
2018-02-24T06:28:41.020Z,76.59
2018-02-24T06:29:41.051Z,76.40
2018-02-24T06:30:41.056Z,76.59
2018-02-24T06:31:41.066Z,76.59
2018-02-24T06:32:41.101Z,76.50
2018-02-24T06:33:41.108Z,76.50
2018-02-24T06:34:41.138Z,76.40
2018-02-24T06:35:41.138Z,76.12
2018-02-24T06:36:41.158Z,76.12
2018-02-24T06:37:41.171Z,75.93
2018-02-24T06:38:41.191Z,75.83
2018-02-24T06:39:41.214Z,76.12
2018-02-24T06:40:41.226Z,76.31
2018-02-24T06:41:41.244Z,76.31
2018-02-24T06:42:41.263Z,76.50
2018-02-24T06:43:41.290Z,77.15
2018-02-24T06:44:41.297Z,77.15
2018-02-24T06:45:41.326Z,76.68
2018-02-24T06:46:41.330Z,76.40
2018-02-24T06:47:41.344Z,76.40
2018-02-24T06:48:41.366Z,76.50
2018-02-24T06:49:41.397Z,75.74
2018-02-24T06:50:41.402Z,76.02
2018-02-24T06:51:41.418Z,76.59
2018-02-24T06:52:41.439Z,75.83
2018-02-24T06:53:41.452Z,75.93
2018-02-24T06:54:41.553Z,75.55
2018-02-24T06:55:41.489Z,75.17
2018-02-24T06:56:41.501Z,75.17
2018-02-24T06:57:41.519Z,74.41
2018-02-24T06:58:41.636Z,73.85
2018-02-24T06:59:41.569Z,74.32
2018-02-24T07:00:41.640Z,74.22
2018-02-24T07:01:41.592Z,74.13
2018-02-24T07:02:41.618Z,74.04
2018-02-24T07:03:41.625Z,74.13
2018-02-24T07:04:41.657Z,73.85
2018-02-24T07:05:41.665Z,73.75
2018-02-24T07:06:41.728Z,73.75
2018-02-24T07:07:41.703Z,73.56
2018-02-24T07:08:41.717Z,72.90
2018-02-24T07:09:41.732Z,71.77
2018-02-24T07:10:41.750Z,71.67
2018-02-24T07:11:41.775Z,71.20
2018-02-24T07:12:41.790Z,70.73
2018-02-24T07:13:41.803Z,70.63
2018-02-24T07:14:41.829Z,69.49
2018-02-24T07:15:41.840Z,69.12
2018-02-24T07:16:41.854Z,69.02
2018-02-24T07:17:41.924Z,69.02
2018-02-24T07:18:41.889Z,69.12
2018-02-24T07:19:41.933Z,68.55
2018-02-24T07:20:41.926Z,67.51
2018-02-24T07:21:41.955Z,66.75
2018-02-24T07:22:41.977Z,65.91
2018-02-24T07:23:41.981Z,66.00
2018-02-24T07:24:42.008Z,66.09
2018-02-24T07:25:42.014Z,66.00
2018-02-24T07:26:42.032Z,65.43
2018-02-24T07:27:42.046Z,65.24
2018-02-24T07:28:42.083Z,64.48
2018-02-24T07:29:42.089Z,64.20
2018-02-24T07:30:42.102Z,63.92
2018-02-24T07:31:42.132Z,63.92
2018-02-24T07:32:42.157Z,63.92
2018-02-24T07:33:42.168Z,64.01
2018-02-24T07:34:42.179Z,63.64
2018-02-24T07:35:42.200Z,63.64
2018-02-24T07:36:42.206Z,63.45
2018-02-24T07:37:42.263Z,63.07
2018-02-24T07:38:42.253Z,63.07
2018-02-24T07:39:42.276Z,63.35
2018-02-24T07:40:42.288Z,62.78
2018-02-24T07:41:42.310Z,63.54
2018-02-24T07:42:42.318Z,63.16
2018-02-24T07:43:42.342Z,63.92
2018-02-24T07:44:42.355Z,63.64
2018-02-24T07:45:42.369Z,63.26
2018-02-24T07:46:42.384Z,62.31
2018-02-24T07:47:42.482Z,61.65
2018-02-24T07:48:42.434Z,61.93
2018-02-24T07:49:42.457Z,61.27
2018-02-24T07:50:42.459Z,61.36
2018-02-24T07:51:42.475Z,61.18
2018-02-24T07:52:42.495Z,60.33
2018-02-24T07:53:42.515Z,60.52
2018-02-24T07:54:42.525Z,60.04
2018-02-24T07:55:42.540Z,60.23
2018-02-24T07:56:42.561Z,59.85
2018-02-24T07:57:42.579Z,59.47
2018-02-24T07:58:42.597Z,59.66
2018-02-24T07:59:42.623Z,59.57
2018-02-24T08:00:42.632Z,59.57
2018-02-24T08:01:42.657Z,59.66
2018-02-24T08:02:42.691Z,58.72
2018-02-24T08:03:42.697Z,58.15
2018-02-24T08:04:42.734Z,58.06
2018-02-24T08:05:42.717Z,58.15
2018-02-24T08:06:42.756Z,57.96
2018-02-24T08:07:42.777Z,57.68
2018-02-24T08:08:42.783Z,57.39
2018-02-24T08:09:42.794Z,57.39
2018-02-24T08:10:42.814Z,57.30
2018-02-24T08:11:42.835Z,57.11
2018-02-24T08:12:42.846Z,57.39
2018-02-24T08:13:42.874Z,56.92
2018-02-24T08:14:42.894Z,56.45
2018-02-24T08:15:42.903Z,56.16
2018-02-24T08:16:42.938Z,56.35
2018-02-24T08:17:42.929Z,55.69
2018-02-24T08:18:42.983Z,55.41
2018-02-24T08:19:42.967Z,55.53
2018-02-24T08:20:42.986Z,55.79
2018-02-24T08:21:43.024Z,55.25
2018-02-24T08:22:43.037Z,55.53
2018-02-24T08:23:43.046Z,54.96
2018-02-24T08:24:43.137Z,54.96
2018-02-24T08:25:43.107Z,54.68
2018-02-24T08:26:43.108Z,55.25
2018-02-24T08:27:43.119Z,54.68
2018-02-24T08:28:43.131Z,54.49
2018-02-24T08:29:43.805Z,54.49
2018-02-24T08:30:43.178Z,54.30
2018-02-24T08:31:43.369Z,54.30
2018-02-24T08:32:43.214Z,53.83
2018-02-24T08:33:43.250Z,52.98
2018-02-24T08:34:43.246Z,52.50
2018-02-24T08:35:43.264Z,52.60
2018-02-24T08:36:43.283Z,52.41
2018-02-24T08:37:43.323Z,52.12
2018-02-24T08:38:43.312Z,52.03
2018-02-24T08:39:43.335Z,52.03
2018-02-24T08:40:43.344Z,51.93
2018-02-24T08:41:43.383Z,52.31
2018-02-24T08:42:43.387Z,52.03
2018-02-24T08:43:43.402Z,52.12
2018-02-24T08:44:43.450Z,52.22
2018-02-24T08:45:43.541Z,51.65
2018-02-24T08:46:43.524Z,51.37
2018-02-24T08:47:43.533Z,50.71
2018-02-24T08:48:43.580Z,50.40
2018-02-24T08:49:44.362Z,49.76
2018-02-24T08:50:44.372Z,50.42
2018-02-24T08:51:43.590Z,50.49
2018-02-24T08:52:44.384Z,50.52
2018-02-24T08:53:43.632Z,51.09
2018-02-24T08:54:43.678Z,50.99
2018-02-24T08:55:43.623Z,50.71
2018-02-24T08:56:43.650Z,50.14
2018-02-24T08:57:43.673Z,51.09
2018-02-24T08:58:43.674Z,51.18
2018-02-24T08:59:43.713Z,50.52
2018-02-24T09:00:43.714Z,50.04
2018-02-24T09:01:43.725Z,50.11
2018-02-24T09:02:43.766Z,50.04
2018-02-24T09:03:43.780Z,49.95
2018-02-24T09:04:43.798Z,49.95
2018-02-24T09:05:43.805Z,51.65
2018-02-24T09:06:43.852Z,50.61
2018-02-24T09:07:43.844Z,50.14
2018-02-24T09:08:43.895Z,50.23
2018-02-24T09:09:43.879Z,51.09
2018-02-24T09:10:43.895Z,50.61
2018-02-24T09:11:43.907Z,50.52
2018-02-24T09:12:43.924Z,49.48
2018-02-24T09:13:44.873Z,48.91
2018-02-24T09:14:43.998Z,49.38
2018-02-24T09:15:44.003Z,50.61
2018-02-24T09:16:44.003Z,50.14
2018-02-24T09:17:44.017Z,50.14
2018-02-24T09:18:44.049Z,49.66
2018-02-24T09:19:44.063Z,50.42
2018-02-24T09:20:44.074Z,50.90
2018-02-24T09:21:44.107Z,52.12
2018-02-24T09:22:44.148Z,52.50
2018-02-24T09:23:44.131Z,52.69
2018-02-24T09:24:44.152Z,51.84
2018-02-24T09:25:44.174Z,51.37
2018-02-24T09:26:44.212Z,50.52
2018-02-24T09:27:44.219Z,51.09
2018-02-24T09:28:44.228Z,51.09
2018-02-24T09:29:44.228Z,52.69
2018-02-24T09:30:44.248Z,52.60
2018-02-24T09:31:44.278Z,51.09
2018-02-24T09:32:44.315Z,50.23
2018-02-24T09:33:44.324Z,49.66
2018-02-24T09:34:44.342Z,49.95
2018-02-24T09:35:44.370Z,49.29
2018-02-24T09:36:44.377Z,49.48
2018-02-24T09:37:44.389Z,50.04
2018-02-24T09:38:44.448Z,50.04
2018-02-24T09:39:44.438Z,49.95
2018-02-24T09:40:44.447Z,49.95
2018-02-24T09:41:44.451Z,49.29
2018-02-24T09:42:44.486Z,49.19
2018-02-24T09:43:44.502Z,48.91
2018-02-24T09:44:45.404Z,49.19
2018-02-24T09:45:45.457Z,49.29
2018-02-24T09:46:44.614Z,49.48
2018-02-24T09:47:44.566Z,49.01
2018-02-24T09:48:44.608Z,49.10
2018-02-24T09:49:45.360Z,49.10
2018-02-24T09:50:44.618Z,48.82
2018-02-24T09:51:44.647Z,48.25
2018-02-24T09:52:44.661Z,48.25
2018-02-24T09:53:44.689Z,47.68
2018-02-24T09:54:44.714Z,47.49
2018-02-24T09:55:44.723Z,47.68
2018-02-24T09:56:44.749Z,47.11
2018-02-24T09:57:44.759Z,47.87
2018-02-24T09:58:44.819Z,49.57
2018-02-24T09:59:44.804Z,48.91
2018-02-24T10:00:44.805Z,47.89
2018-02-24T10:01:44.848Z,47.70
2018-02-24T10:02:44.838Z,46.85
2018-02-24T10:03:44.864Z,45.72
2018-02-24T10:04:44.875Z,45.81
2018-02-24T10:05:44.908Z,45.62
2018-02-24T10:06:44.929Z,44.70
2018-02-24T10:07:44.935Z,44.79
2018-02-24T10:08:44.965Z,44.32
2018-02-24T10:09:44.969Z,43.37
2018-02-24T10:10:44.994Z,44.06
2018-02-24T10:11:45.034Z,42.66
2018-02-24T10:12:45.044Z,40.38
2018-02-24T10:13:45.050Z,40.00
2018-02-24T10:14:45.068Z,40.57
2018-02-24T10:15:45.151Z,42.75
2018-02-24T10:16:45.120Z,44.65
2018-02-24T10:17:45.141Z,44.17
2018-02-24T10:18:45.144Z,41.99
2018-02-24T10:19:45.173Z,40.85
2018-02-24T10:20:45.215Z,40.09
2018-02-24T10:21:45.217Z,40.09
2018-02-24T10:22:45.247Z,40.59
2018-02-24T10:23:45.279Z,40.02
2018-02-24T10:24:45.270Z,40.23
2018-02-24T10:25:45.306Z,39.66
2018-02-24T10:26:45.324Z,39.40
2018-02-24T10:27:45.374Z,38.82
2018-02-24T10:28:45.378Z,37.23
2018-02-24T10:29:45.398Z,36.21
2018-02-24T10:30:45.428Z,36.04
2018-02-24T10:31:45.428Z,36.15
2018-02-24T10:32:45.468Z,33.88
2018-02-24T10:33:45.472Z,31.24
2018-02-24T10:34:45.530Z,29.37
2018-02-24T10:35:45.524Z,28.33
2018-02-24T10:36:45.559Z,27.75
2018-02-24T10:37:45.578Z,27.26
2018-02-24T10:38:46.395Z,26.39
2018-02-24T10:39:45.710Z,27.25
2018-02-24T10:40:45.663Z,27.44
2018-02-24T10:41:45.706Z,26.58
2018-02-24T10:42:45.717Z,26.67
2018-02-24T10:43:45.739Z,26.18
2018-02-24T10:44:45.755Z,26.56
2018-02-24T10:45:45.782Z,27.44
2018-02-24T10:46:45.815Z,26.31
2018-02-24T10:47:45.852Z,24.79
2018-02-24T10:48:45.880Z,23.46
2018-02-24T10:49:45.922Z,23.29
2018-02-24T10:50:46.008Z,23.10
2018-02-24T10:51:45.956Z,22.92
2018-02-24T10:52:45.986Z,22.74
2018-02-24T10:53:46.018Z,22.27
2018-02-24T10:54:46.173Z,21.32
2018-02-24T10:55:46.082Z,21.03
2018-02-24T10:56:46.120Z,19.79
2018-02-24T10:57:46.162Z,20.81
2018-02-24T10:58:46.171Z,22.72
2018-02-24T10:59:46.210Z,22.60
2018-02-24T11:00:46.253Z,25.09
2018-02-24T11:01:46.282Z,25.49
2018-02-24T11:02:46.295Z,26.28
2018-02-24T11:03:46.321Z,24.27
2018-02-24T11:04:46.354Z,23.69
2018-02-24T11:05:46.430Z,24.16
2018-02-24T11:06:46.419Z,22.07
2018-02-24T11:07:46.448Z,23.90
2018-02-24T11:08:46.484Z,24.48
2018-02-24T11:09:46.522Z,21.14
2018-02-24T11:10:46.552Z,20.18
2018-02-24T11:11:46.642Z,19.79
2018-02-24T11:12:46.638Z,19.50
2018-02-24T11:13:46.650Z,18.83
2018-02-24T11:14:46.684Z,18.45
2018-02-24T11:15:46.740Z,18.54
2018-02-24T11:16:46.733Z,18.35
2018-02-24T11:17:46.830Z,18.24
2018-02-24T11:18:46.814Z,18.33
2018-02-24T11:19:46.843Z,17.66
2018-02-24T11:20:46.867Z,19.76
2018-02-24T11:21:46.911Z,21.19
2018-02-24T11:22:46.938Z,21.28
2018-02-24T11:23:46.969Z,21.47
2018-02-24T11:24:47.004Z,20.79
2018-02-24T11:25:47.043Z,21.36
2018-02-24T11:26:47.069Z,21.84
2018-02-24T11:27:47.094Z,22.03
2018-02-24T11:28:47.210Z,22.22
2018-02-24T11:29:47.167Z,22.69
2018-02-24T11:30:47.199Z,22.88
2018-02-24T11:31:47.230Z,21.83
2018-02-24T11:32:47.259Z,21.35
2018-02-24T11:33:47.292Z,21.15
2018-02-24T11:34:47.312Z,20.96
2018-02-24T11:35:47.346Z,21.42
2018-02-24T11:36:47.396Z,21.23
2018-02-24T11:37:47.421Z,22.38
2018-02-24T11:38:47.449Z,22.46
2018-02-24T11:39:47.490Z,22.46
2018-02-24T11:40:47.500Z,25.51
2018-02-24T11:41:47.539Z,28.27
2018-02-24T11:42:47.553Z,27.31
2018-02-24T11:43:47.596Z,25.41
2018-02-24T11:44:47.621Z,24.27
2018-02-24T11:45:47.640Z,22.25
2018-02-24T11:46:47.704Z,22.25
2018-02-24T11:47:47.729Z,23.49
2018-02-24T11:48:47.863Z,23.98
2018-02-24T11:49:47.823Z,23.50
2018-02-24T11:50:47.805Z,22.46
2018-02-24T11:51:47.818Z,22.36
2018-02-24T11:52:47.842Z,22.94
2018-02-24T11:53:47.880Z,23.03
2018-02-24T11:54:47.894Z,24.55
2018-02-24T11:55:47.925Z,23.33
2018-02-24T11:56:47.949Z,24.29
2018-02-24T11:57:47.983Z,23.44
2018-02-24T11:58:48.013Z,22.49
2018-02-24T11:59:48.040Z,22.40
2018-02-24T12:00:48.054Z,23.15
2018-02-24T12:01:48.097Z,21.35
2018-02-24T12:02:48.127Z,21.51
2018-02-24T12:03:48.165Z,21.89
2018-02-24T12:04:48.192Z,22.09
2018-02-24T12:05:48.198Z,21.05
2018-02-24T12:06:48.232Z,20.76
2018-02-24T12:07:48.319Z,20.79
2018-02-24T12:08:48.300Z,20.69
2018-02-24T12:09:48.680Z,19.45
2018-02-24T12:10:48.373Z,18.89
2018-02-24T12:11:48.385Z,18.03
2018-02-24T12:12:48.411Z,18.80
2018-02-24T12:13:48.532Z,19.48
2018-02-24T12:14:48.528Z,20.63
2018-02-24T12:15:48.540Z,18.25
2018-02-24T12:16:48.542Z,16.73
2018-02-24T12:17:48.590Z,16.34
2018-02-24T12:18:48.587Z,16.91
2018-02-24T12:19:48.648Z,15.88
2018-02-24T12:20:48.668Z,15.41
2018-02-24T12:21:48.685Z,14.45
2018-02-24T12:22:48.741Z,14.94
2018-02-24T12:23:48.753Z,14.55
2018-02-24T12:24:48.789Z,14.17
2018-02-24T12:25:48.828Z,13.29
2018-02-24T12:26:48.838Z,13.87
2018-02-24T12:27:48.867Z,13.86
2018-02-24T12:28:49.031Z,14.24
2018-02-24T12:29:48.943Z,14.25
2018-02-24T12:30:48.980Z,14.05
2018-02-24T12:31:48.993Z,14.42
2018-02-24T12:32:49.039Z,15.36
2018-02-24T12:33:49.106Z,16.96
2018-02-24T12:34:49.095Z,18.65
2018-02-24T12:35:49.209Z,20.06
2018-02-24T12:36:49.191Z,21.39
2018-02-24T12:37:49.197Z,22.81
2018-02-24T12:38:49.214Z,24.13
2018-02-24T12:39:49.238Z,24.03
2018-02-24T12:40:49.259Z,24.96
2018-02-24T12:41:49.294Z,25.54
2018-02-24T12:42:49.324Z,26.01
2018-02-24T12:43:49.350Z,26.57
2018-02-24T12:44:49.382Z,27.04
2018-02-24T12:45:49.405Z,27.23
2018-02-24T12:46:49.420Z,28.07
2018-02-24T12:47:49.461Z,28.74
2018-02-24T12:48:49.494Z,29.30
2018-02-24T12:49:49.496Z,28.81
2018-02-24T12:50:49.532Z,29.76
2018-02-24T12:51:49.546Z,29.86
2018-02-24T12:52:49.572Z,30.52